Time;durP1;ratioP1;P1;durP2;ratioP2;P2;SDS_P1;SDS_P2;PMS_P1;PMS_P2;Temp;Humidity;BMP_temperature;BMP_pressure;BME280_temperature;BME280_humidity;BME280_pressure;Samples;Min_cycle;Max_cycle;Signal;HPM_P1;HPM_P2
2022/03/14 08:39:32;;;;;;;7.53;4.63;;;8.30;99.90;;;;;;5173384;27;20530;-68
2022/03/14 08:41:58;;;;;;;5.63;4.70;;;8.30;99.90;;;;;;5173244;27;20169;-68
2022/03/14 08:44:24;;;;;;;7.93;5.50;;;8.30;99.90;;;;;;5173116;27;20499;-68
2022/03/14 08:46:49;;;;;;;7.55;5.13;;;8.30;99.90;;;;;;5173207;27;20618;-68
2022/03/14 08:49:15;;;;;;;8.68;5.35;;;8.30;99.90;;;;;;5173126;27;20248;-69
2022/03/14 08:51:41;;;;;;;6.20;4.40;;;8.30;99.90;;;;;;5154463;27;20257;-68
2022/03/14 08:54:07;;;;;;;10.73;5.13;;;8.30;99.90;;;;;;5173028;27;20172;-69
2022/03/14 08:56:33;;;;;;;9.52;4.72;;;8.30;99.90;;;;;;5172988;27;20165;-68
2022/03/14 08:58:58;;;;;;;14.90;5.07;;;8.30;99.90;;;;;;5172842;27;20200;-69
2022/03/14 09:01:24;;;;;;;8.15;4.70;;;8.30;99.90;;;;;;5154162;27;20527;-68
2022/03/14 09:03:50;;;;;;;8.63;5.25;;;8.30;99.90;;;;;;5172920;27;20237;-68
2022/03/14 09:06:17;;;;;;;14.27;7.00;;;8.30;99.90;;;;;;5154207;27;20625;-68
2022/03/14 09:08:42;;;;;;;7.28;4.72;;;8.30;99.90;;;;;;5172766;27;20165;-69
2022/03/14 09:11:08;;;;;;;7.63;4.97;;;8.30;99.90;;;;;;5153978;27;20523;-69
2022/03/14 09:13:34;;;;;;;8.95;5.75;;;8.40;99.90;;;;;;5172574;27;20229;-68
2022/03/14 09:15:59;;;;;;;9.00;5.75;;;8.40;99.90;;;;;;5172679;27;20157;-68
2022/03/14 09:18:29;;;;;;;5.82;5.20;;;8.40;99.90;;;;;;5172406;27;20591;-68
2022/03/14 09:20:56;;;;;;;8.55;5.10;;;8.40;99.90;;;;;;5172537;27;20192;-68
2022/03/14 09:23:23;;;;;;;8.52;5.45;;;8.40;99.90;;;;;;5153822;27;20197;-69
2022/03/14 09:25:48;;;;;;;8.30;5.35;;;8.40;99.90;;;;;;5172316;27;20646;-68
2022/03/14 09:28:15;;;;;;;7.80;5.28;;;8.30;99.90;;;;;;5172291;27;20225;-69
2022/03/14 09:30:41;;;;;;;7.57;4.88;;;8.40;99.90;;;;;;5172312;27;20161;-69
2022/03/14 09:33:07;;;;;;;11.13;5.38;;;8.40;99.90;;;;;;5172217;27;20229;-68
2022/03/14 09:35:34;;;;;;;5.32;4.93;;;8.40;99.90;;;;;;5172366;27;20165;-68
2022/03/14 09:38:00;;;;;;;7.05;5.43;;;8.40;99.90;;;;;;5171928;27;20213;-68
2022/03/14 09:40:30;;;;;;;9.18;5.13;;;8.30;99.90;;;;;;5172055;27;20161;-68
2022/03/14 09:42:59;;;;;;;8.25;5.32;;;8.30;99.90;;;;;;5172073;27;20173;-68
2022/03/14 09:45:26;;;;;;;7.28;4.72;;;8.30;99.90;;;;;;5172018;27;20153;-69
2022/03/14 09:47:56;;;;;;;7.88;5.43;;;8.30;99.90;;;;;;5172010;27;20176;-68
2022/03/14 09:50:34;;;;;;;5.78;5.30;;;8.40;99.90;;;;;;5161126;27;20244;-68
2022/03/14 09:53:04;;;;;;;5.18;4.70;;;8.40;99.90;;;;;;5157912;27;20169;-68
2022/03/14 09:55:30;;;;;;;7.45;5.65;;;8.40;99.90;;;;;;5157917;27;20170;-69
2022/03/14 09:57:55;;;;;;;5.60;5.20;;;8.30;99.90;;;;;;5139174;27;20196;-69
2022/03/14 10:00:21;;;;;;;7.05;6.38;;;8.40;99.90;;;;;;5157818;27;20161;-69
2022/03/14 10:02:47;;;;;;;6.72;6.07;;;8.40;99.90;;;;;;5157825;27;20174;-68
2022/03/14 10:05:14;;;;;;;10.15;5.53;;;8.40;99.90;;;;;;5157719;27;20261;-69
2022/03/14 10:07:43;;;;;;;9.65;6.05;;;8.40;99.90;;;;;;5157643;27;20166;-68
2022/03/14 10:10:12;;;;;;;9.75;5.13;;;8.40;99.90;;;;;;5157626;27;20158;-68
2022/03/14 10:12:40;;;;;;;9.43;5.75;;;8.50;99.90;;;;;;5157576;27;20639;-68
2022/03/14 10:15:06;;;;;;;5.28;4.88;;;8.60;99.90;;;;;;5139008;27;20180;-68
2022/03/14 10:17:34;;;;;;;5.68;5.07;;;8.60;99.90;;;;;;5157454;27;20193;-68
2022/03/14 10:20:01;;;;;;;5.82;5.25;;;8.60;99.90;;;;;;5157487;27;20169;-69
2022/03/14 10:22:36;;;;;;;7.35;5.53;;;8.60;99.90;;;;;;5157450;27;20219;-69
2022/03/14 10:25:10;;;;;;;8.00;5.43;;;8.60;99.90;;;;;;5157404;27;20162;-68
2022/03/14 10:27:38;;;;;;;6.15;5.10;;;8.60;99.90;;;;;;5157225;27;20185;-68
2022/03/14 10:30:05;;;;;;;5.90;5.30;;;8.60;99.90;;;;;;5157223;27;20162;-68
2022/03/14 10:32:32;;;;;;;5.20;4.80;;;8.60;99.90;;;;;;5138493;27;20221;-68
2022/03/14 10:35:06;;;;;;;5.43;4.93;;;8.60;99.90;;;;;;5157155;27;20586;-68
2022/03/14 10:37:33;;;;;;;16.92;7.82;;;8.70;99.90;;;;;;5138373;27;20217;-69
2022/03/14 10:40:08;;;;;;;7.65;6.07;;;8.60;99.90;;;;;;5157122;27;20177;-69
2022/03/14 10:42:42;;;;;;;5.13;4.70;;;8.70;99.90;;;;;;5157404;27;20232;-68
2022/03/14 10:45:17;;;;;;;8.32;4.80;;;8.70;99.90;;;;;;5156918;27;20157;-69
2022/03/14 10:47:45;;;;;;;7.65;4.75;;;8.80;99.90;;;;;;5156949;27;20172;-69
2022/03/14 10:50:33;;;;;;;8.95;6.05;;;8.80;99.90;;;;;;5156916;27;20162;-68
2022/03/14 10:53:11;;;;;;;5.07;4.72;;;8.90;99.90;;;;;;5156881;27;20162;-68
2022/03/14 10:55:47;;;;;;;5.70;5.20;;;9.00;99.90;;;;;;5156753;27;20166;-68
2022/03/14 10:58:15;;;;;;;4.95;4.65;;;9.00;99.90;;;;;;5138106;27;20207;-69
2022/03/14 11:00:52;;;;;;;5.50;5.00;;;9.00;99.90;;;;;;5156017;27;20154;-68
2022/03/14 11:03:29;;;;;;;5.57;4.55;;;9.10;99.90;;;;;;5156521;27;20161;-68
2022/03/14 11:06:01;;;;;;;9.82;5.70;;;9.30;99.90;;;;;;5156554;27;20180;-69
2022/03/14 11:08:39;;;;;;;6.88;5.05;;;9.50;99.90;;;;;;5156583;27;20706;-68
2022/03/14 11:11:13;;;;;;;5.30;4.80;;;9.60;99.90;;;;;;5156519;27;20211;-68
2022/03/14 11:13:44;;;;;;;7.25;4.95;;;9.60;99.90;;;;;;5156399;27;20188;-69
2022/03/14 11:16:27;;;;;;;8.57;5.30;;;9.60;99.90;;;;;;5156376;27;20200;-68
2022/03/14 11:18:53;;;;;;;5.50;5.03;;;9.70;99.90;;;;;;5137650;27;20201;-68
2022/03/14 11:21:25;;;;;;;5.97;4.70;;;9.70;99.90;;;;;;5156339;27;20189;-69
2022/03/14 11:23:53;;;;;;;7.22;5.38;;;9.80;99.90;;;;;;5156284;27;20165;-68
2022/03/14 11:26:21;;;;;;;9.25;5.78;;;9.90;99.90;;;;;;5156088;27;20269;-69
2022/03/14 11:28:50;;;;;;;8.45;5.50;;;10.00;99.90;;;;;;5155982;27;20177;-69
2022/03/14 11:31:18;;;;;;;8.20;5.68;;;10.00;99.90;;;;;;5137532;27;20699;-69
2022/03/14 11:33:44;;;;;;;11.02;5.40;;;10.00;99.90;;;;;;5156022;27;20523;-68
2022/03/14 11:36:10;;;;;;;7.38;5.28;;;10.00;99.90;;;;;;5155969;27;20244;-69
2022/03/14 11:38:35;;;;;;;5.05;4.65;;;10.10;99.90;;;;;;5155645;27;20685;-69
2022/03/14 11:41:02;;;;;;;5.72;5.32;;;10.10;99.90;;;;;;5155977;27;20170;-68
2022/03/14 11:43:28;;;;;;;8.77;4.78;;;10.00;99.90;;;;;;5155737;27;20169;-69
2022/03/14 11:45:58;;;;;;;9.25;6.15;;;10.00;99.90;;;;;;5155778;27;20162;-69
2022/03/14 11:48:31;;;;;;;6.70;5.18;;;9.90;99.90;;;;;;5155730;27;20221;-69
2022/03/14 11:50:59;;;;;;;7.28;6.43;;;9.80;99.90;;;;;;5155735;27;20670;-69
2022/03/14 11:53:30;;;;;;;6.28;5.22;;;9.80;99.90;;;;;;5155634;27;20162;-69
2022/03/14 11:56:00;;;;;;;7.00;5.72;;;9.80;99.90;;;;;;5136990;27;20630;-68
2022/03/14 11:58:34;;;;;;;14.15;6.43;;;9.80;99.90;;;;;;5155518;27;20197;-69
2022/03/14 12:01:29;;;;;;;7.55;5.93;;;9.80;99.90;;;;;;5155551;27;20166;-69
2022/03/14 12:03:57;;;;;;;6.43;5.82;;;9.80;99.90;;;;;;5136797;27;20177;-69
2022/03/14 12:06:47;;;;;;;8.93;6.35;;;9.80;99.90;;;;;;5155338;27;20650;-69
2022/03/14 12:09:24;;;;;;;8.70;5.47;;;9.70;99.90;;;;;;5155379;27;20180;-69
2022/03/14 12:11:55;;;;;;;10.30;5.28;;;9.70;99.90;;;;;;5155302;27;20169;-69
2022/03/14 12:14:41;;;;;;;9.55;5.40;;;9.70;99.90;;;;;;5155299;27;20221;-68
2022/03/14 12:17:29;;;;;;;12.25;5.70;;;9.80;99.90;;;;;;5155261;27;20189;-68
2022/03/14 12:19:59;;;;;;;7.45;4.82;;;9.90;99.90;;;;;;5155268;27;20187;-68
2022/03/14 12:22:32;;;;;;;7.75;5.15;;;9.90;99.90;;;;;;5155167;27;20546;-68
2022/03/14 12:24:59;;;;;;;8.68;5.00;;;9.80;99.90;;;;;;5155057;27;20210;-68
2022/03/14 12:27:26;;;;;;;4.78;4.28;;;9.80;99.90;;;;;;5155068;27;20236;-68
2022/03/14 12:29:54;;;;;;;5.47;4.43;;;9.70;99.90;;;;;;5155098;27;20166;-68
2022/03/14 12:32:36;;;;;;;4.82;4.43;;;9.70;99.90;;;;;;5155153;27;20166;-68
2022/03/14 12:35:12;;;;;;;10.13;4.63;;;9.60;99.90;;;;;;5155118;27;20248;-68
2022/03/14 12:37:53;;;;;;;4.50;4.10;;;9.50;99.90;;;;;;5154757;27;20211;-68
2022/03/14 12:40:21;;;;;;;4.78;4.25;;;9.50;99.90;;;;;;5155095;27;20161;-68
2022/03/14 12:43:12;;;;;;;6.07;4.78;;;9.50;99.90;;;;;;5136507;27;20524;-68
2022/03/14 12:45:47;;;;;;;5.30;4.80;;;9.50;99.90;;;;;;5136423;27;20165;-68
2022/03/14 12:48:24;;;;;;;9.95;4.53;;;9.50;99.90;;;;;;5136421;27;20180;-69
2022/03/14 12:50:49;;;;;;;4.75;4.35;;;9.50;99.90;;;;;;5154959;27;20161;-69
2022/03/14 12:53:19;;;;;;;6.03;4.10;;;9.50;99.90;;;;;;5154890;27;20687;-68
2022/03/14 12:55:50;;;;;;;4.32;4.03;;;9.50;99.90;;;;;;5154853;27;20170;-68
2022/03/14 12:58:22;;;;;;;5.40;3.40;;;9.50;99.90;;;;;;5154799;27;20193;-68
2022/03/14 13:00:49;;;;;;;4.18;3.88;;;9.50;99.90;;;;;;5154805;27;20548;-68
2022/03/14 13:03:21;;;;;;;3.90;3.60;;;9.50;99.90;;;;;;5154776;27;20249;-68
2022/03/14 13:05:47;;;;;;;3.90;3.60;;;9.60;99.90;;;;;;5155028;27;20162;-68
2022/03/14 13:08:13;;;;;;;5.78;3.25;;;9.60;99.90;;;;;;5154764;27;20541;-68
2022/03/14 13:10:44;;;;;;;3.40;3.10;;;9.70;99.90;;;;;;5154758;27;20215;-68
2022/03/14 13:13:12;;;;;;;3.25;3.05;;;9.80;99.90;;;;;;5154732;27;20166;-68
2022/03/14 13:15:39;;;;;;;5.80;2.92;;;9.90;99.90;;;;;;5154656;27;20172;-68
2022/03/14 13:18:22;;;;;;;3.50;3.20;;;10.00;99.90;;;;;;5154516;27;20290;-68
2022/03/14 13:20:48;;;;;;;5.80;3.28;;;10.10;99.90;;;;;;5154639;27;20165;-68
2022/03/14 13:23:18;;;;;;;3.00;2.78;;;10.30;99.90;;;;;;5154581;27;20158;-68
2022/03/14 13:25:47;;;;;;;5.57;2.92;;;10.40;99.90;;;;;;5157348;27;20272;-68
2022/03/14 13:28:27;;;;;;;3.50;2.70;;;10.50;99.90;;;;;;5158570;27;20176;-68
2022/03/14 13:30:54;;;;;;;3.22;2.92;;;10.50;99.90;;;;;;5158441;27;20173;-69
2022/03/14 13:33:25;;;;;;;2.80;2.60;;;10.50;99.90;;;;;;5158429;27;20166;-68
2022/03/14 13:35:56;;;;;;;7.45;3.03;;;10.60;99.90;;;;;;5140539;27;20222;-68
2022/03/14 13:38:44;;;;;;;6.50;3.30;;;10.70;99.90;;;;;;5158096;27;20217;-69
2022/03/14 13:41:24;;;;;;;4.95;3.17;;;11.00;99.90;;;;;;5139308;27;20752;-68
2022/03/14 13:43:58;;;;;;;5.22;3.45;;;11.10;99.90;;;;;;5158254;27;20213;-69
2022/03/14 13:46:38;;;;;;;4.03;3.55;;;11.20;99.90;;;;;;5158062;27;20153;-69
2022/03/14 13:49:24;;;;;;;5.13;3.83;;;11.20;99.90;;;;;;5139549;27;20165;-69
2022/03/14 13:51:58;;;;;;;4.78;3.58;;;11.20;99.90;;;;;;5157454;27;20241;-69
2022/03/14 13:54:34;;;;;;;8.15;3.38;;;11.10;99.90;;;;;;5157995;27;20210;-68
2022/03/14 13:57:02;;;;;;;3.50;3.20;;;10.90;99.90;;;;;;5157942;27;20149;-69
2022/03/14 13:59:33;;;;;;;6.28;3.80;;;10.80;99.90;;;;;;5157857;27;20194;-69
2022/03/14 14:02:30;;;;;;;3.70;3.40;;;10.70;99.90;;;;;;5157830;27;20173;-68
2022/03/14 14:04:55;;;;;;;3.47;3.10;;;10.60;99.90;;;;;;5157653;27;20213;-69
2022/03/14 14:07:26;;;;;;;5.25;3.92;;;10.50;99.90;;;;;;5157689;27;20252;-69
2022/03/14 14:09:53;;;;;;;4.88;3.40;;;10.50;99.90;;;;;;5157742;27;20209;-68
2022/03/14 14:12:27;;;;;;;5.05;3.10;;;10.50;99.90;;;;;;5157650;27;20154;-68
2022/03/14 14:14:54;;;;;;;4.45;3.92;;;10.50;99.90;;;;;;5157599;27;20185;-69
2022/03/14 14:17:36;;;;;;;3.28;3.00;;;10.50;99.90;;;;;;5157427;27;20253;-69
2022/03/14 14:20:18;;;;;;;3.70;2.95;;;10.60;99.90;;;;;;5157419;27;20177;-69
2022/03/14 14:22:54;;;;;;;6.03;3.10;;;10.70;99.90;;;;;;5157508;27;20162;-69
2022/03/14 14:25:27;;;;;;;3.15;2.85;;;10.70;99.90;;;;;;5157352;27;20536;-69
2022/03/14 14:28:07;;;;;;;3.92;3.05;;;10.70;99.90;;;;;;5157363;27;20623;-69
2022/03/14 14:30:49;;;;;;;2.78;2.58;;;10.80;99.90;;;;;;5157329;27;20618;-69
2022/03/14 14:33:30;;;;;;;3.45;2.40;;;11.00;99.90;;;;;;5157281;27;20165;-69
2022/03/14 14:35:56;;;;;;;4.47;3.40;;;11.20;99.90;;;;;;5157160;27;20173;-69
2022/03/14 14:38:24;;;;;;;3.28;2.83;;;11.40;99.90;;;;;;5156860;27;20693;-69
2022/03/14 14:40:50;;;;;;;4.65;2.90;;;11.80;99.90;;;;;;5157162;27;20168;-69
2022/03/14 14:43:18;;;;;;;2.45;2.25;;;12.10;99.90;;;;;;5138472;27;20201;-69
2022/03/14 14:45:45;;;;;;;2.70;2.60;;;12.40;99.90;;;;;;5157034;27;20162;-69
2022/03/14 14:48:12;;;;;;;2.85;2.38;;;12.40;99.90;;;;;;5156970;27;20710;-69
2022/03/14 14:50:39;;;;;;;3.28;2.45;;;12.70;99.90;;;;;;5157010;27;20199;-69
2022/03/14 14:53:06;;;;;;;2.35;2.22;;;12.80;99.90;;;;;;5156786;27;20305;-69
2022/03/14 14:55:34;;;;;;;5.03;3.03;;;13.00;99.90;;;;;;5156864;27;20174;-69
2022/03/14 14:57:59;;;;;;;5.60;2.55;;;13.20;99.90;;;;;;5156685;27;20198;-69
2022/03/14 15:00:27;;;;;;;6.43;2.80;;;13.30;99.90;;;;;;5156778;27;20166;-69
2022/03/14 15:02:53;;;;;;;3.85;3.33;;;13.50;99.90;;;;;;5156652;27;20165;-69
2022/03/14 15:05:19;;;;;;;6.43;3.60;;;13.60;99.90;;;;;;5138138;27;20201;-69
2022/03/14 15:07:45;;;;;;;5.13;3.15;;;13.60;99.90;;;;;;5156514;27;20238;-69
2022/03/14 15:10:12;;;;;;;3.10;2.88;;;13.60;99.90;;;;;;5156528;27;20170;-69
2022/03/14 15:12:39;;;;;;;4.25;3.53;;;13.40;99.90;;;;;;5156367;27;20248;-69
2022/03/14 15:15:06;;;;;;;6.18;3.45;;;13.00;99.90;;;;;;5156378;27;20173;-69
2022/03/14 15:17:32;;;;;;;6.68;3.75;;;12.80;99.90;;;;;;5156243;27;20197;-69
2022/03/14 15:19:58;;;;;;;4.20;3.80;;;12.70;99.90;;;;;;5156255;27;20162;-69
2022/03/14 15:22:24;;;;;;;3.17;2.78;;;12.50;99.90;;;;;;5137652;27;20181;-69
2022/03/14 15:24:49;;;;;;;5.75;2.97;;;12.50;99.90;;;;;;5156458;27;20201;-69
2022/03/14 15:27:15;;;;;;;3.67;3.03;;;12.30;99.90;;;;;;5156095;27;20185;-69
2022/03/14 15:29:44;;;;;;;8.45;3.78;;;12.30;99.90;;;;;;5156153;27;20184;-69
2022/03/14 15:32:10;;;;;;;3.72;3.42;;;12.20;99.90;;;;;;5156030;27;20161;-69
2022/03/14 15:34:35;;;;;;;4.68;4.05;;;12.10;99.90;;;;;;5155959;27;20162;-69
2022/03/14 15:37:01;;;;;;;4.55;3.83;;;11.90;99.90;;;;;;5155856;27;20169;-69
2022/03/14 15:39:26;;;;;;;7.68;3.63;;;11.80;99.90;;;;;;5155651;27;20222;-69
2022/03/14 15:41:52;;;;;;;4.78;4.10;;;11.60;99.90;;;;;;5155774;27;20184;-69
2022/03/14 15:44:18;;;;;;;4.80;4.47;;;11.60;99.90;;;;;;5155820;27;20169;-69
2022/03/14 15:46:44;;;;;;;5.40;3.58;;;11.80;99.90;;;;;;5155479;27;20515;-69
2022/03/14 15:49:09;;;;;;;5.35;3.50;;;11.90;99.90;;;;;;5155430;27;20412;-69
2022/03/14 15:51:37;;;;;;;4.25;3.85;;;11.90;99.90;;;;;;5155622;27;20184;-69
2022/03/14 15:54:05;;;;;;;3.75;3.45;;;12.10;99.90;;;;;;5155667;27;20193;-69
2022/03/14 15:56:31;;;;;;;3.72;3.38;;;12.30;99.90;;;;;;5155554;27;20238;-69
2022/03/14 15:58:56;;;;;;;11.73;3.30;;;12.50;99.90;;;;;;5155530;27;20592;-69
2022/03/14 16:01:22;;;;;;;3.47;2.63;;;12.60;99.90;;;;;;5155464;27;20421;-67
2022/03/14 16:03:48;;;;;;;3.47;2.83;;;12.80;99.90;;;;;;5155346;27;20538;-67
2022/03/14 16:06:15;;;;;;;2.97;2.65;;;12.90;99.90;;;;;;5155084;27;20218;-67
2022/03/14 16:08:41;;;;;;;4.28;2.70;;;12.80;99.90;;;;;;5155149;27;20168;-66
2022/03/14 16:11:07;;;;;;;5.93;3.00;;;12.80;99.90;;;;;;5155377;27;20584;-66
2022/03/14 16:13:32;;;;;;;3.33;2.38;;;12.80;99.90;;;;;;5155286;27;20256;-66
2022/03/14 16:15:59;;;;;;;2.67;2.47;;;12.90;99.90;;;;;;5155284;27;20193;-66
2022/03/14 16:18:26;;;;;;;4.35;2.58;;;12.90;99.90;;;;;;5153905;27;20228;-67
2022/03/14 16:20:52;;;;;;;3.85;3.55;;;12.90;99.90;;;;;;5155206;27;20690;-67
2022/03/14 16:23:19;;;;;;;2.47;2.38;;;12.90;99.90;;;;;;5136595;27;20536;-67
2022/03/14 16:25:46;;;;;;;4.40;2.60;;;12.90;99.90;;;;;;5155255;27;20663;-67
2022/03/14 16:28:12;;;;;;;3.72;3.25;;;12.80;99.90;;;;;;5154591;27;20170;-69
2022/03/14 16:30:38;;;;;;;2.80;2.45;;;12.70;99.90;;;;;;5154986;27;20193;-69
2022/03/14 16:33:04;;;;;;;3.45;2.40;;;12.70;99.90;;;;;;5154430;27;20608;-69
2022/03/14 16:35:29;;;;;;;6.15;2.30;;;12.70;99.90;;;;;;5155024;27;20169;-69
2022/03/14 16:37:56;;;;;;;4.72;2.50;;;12.70;99.90;;;;;;5136304;27;20225;-69
2022/03/14 16:40:23;;;;;;;4.38;2.60;;;12.70;99.90;;;;;;5154954;27;20162;-69
2022/03/14 16:42:49;;;;;;;5.85;2.83;;;12.70;99.90;;;;;;5154990;27;20161;-69
2022/03/14 16:45:15;;;;;;;3.70;2.42;;;12.70;99.90;;;;;;5154963;27;20629;-69
2022/03/14 16:47:41;;;;;;;9.57;2.45;;;12.70;99.90;;;;;;5136352;27;20172;-69
2022/03/14 16:50:08;;;;;;;4.53;2.55;;;12.60;99.90;;;;;;5154700;27;20252;-69
2022/03/14 16:52:34;;;;;;;5.70;2.55;;;12.50;99.90;;;;;;5153907;27;20631;-69
2022/03/14 16:55:01;;;;;;;3.70;3.05;;;12.40;99.90;;;;;;5154681;27;20249;-69
2022/03/14 16:57:26;;;;;;;5.20;2.50;;;12.40;99.90;;;;;;5154551;27;20682;-69
2022/03/14 16:59:52;;;;;;;5.40;2.83;;;12.30;99.90;;;;;;5156314;27;20174;-69
2022/03/14 17:02:19;;;;;;;3.50;2.63;;;12.20;99.90;;;;;;5158960;27;20165;-69
2022/03/14 17:04:47;;;;;;;5.93;2.97;;;12.10;99.90;;;;;;5158954;27;20614;-69
2022/03/14 17:07:13;;;;;;;2.67;2.38;;;12.00;99.90;;;;;;5158772;27;20176;-69
2022/03/14 17:09:39;;;;;;;4.93;2.55;;;11.90;99.90;;;;;;5140287;27;20173;-69
2022/03/14 17:12:05;;;;;;;3.28;2.60;;;11.80;99.90;;;;;;5158681;27;20640;-69
2022/03/14 17:14:31;;;;;;;4.35;2.50;;;11.70;99.90;;;;;;5158682;27;20169;-69
2022/03/14 17:16:58;;;;;;;5.50;3.33;;;11.50;99.90;;;;;;5158504;27;20161;-69
2022/03/14 17:19:24;;;;;;;2.97;2.63;;;11.40;99.90;;;;;;5158758;27;20216;-69
2022/03/14 17:21:50;;;;;;;3.25;2.60;;;11.20;99.90;;;;;;5139510;27;20635;-69
2022/03/14 17:24:16;;;;;;;4.28;2.60;;;11.10;99.90;;;;;;5158469;27;20161;-69
2022/03/14 17:26:42;;;;;;;3.78;3.00;;;10.90;99.90;;;;;;5158358;27;20260;-69
2022/03/14 17:29:08;;;;;;;2.40;2.30;;;10.80;99.90;;;;;;5158382;27;20168;-69
2022/03/14 17:31:33;;;;;;;4.85;2.92;;;10.70;99.90;;;;;;5158414;27;20172;-69
2022/03/14 17:33:59;;;;;;;3.33;2.55;;;10.60;99.90;;;;;;5139824;27;20635;-69
2022/03/14 17:36:24;;;;;;;6.22;2.88;;;10.50;99.90;;;;;;5158353;27;20248;-68
2022/03/14 17:38:50;;;;;;;4.72;2.97;;;10.40;99.90;;;;;;5158092;27;20224;-69
